createdAt,value
2022-08-26T00:02:19.288Z,27.19
2022-08-26T00:04:50.098Z,27.06
2022-08-26T00:07:19.258Z,27.02
2022-08-26T00:09:48.154Z,27.09
2022-08-26T00:12:18.260Z,27.12
2022-08-26T00:14:47.138Z,27.08
2022-08-26T00:17:16.261Z,27.04
2022-08-26T00:19:44.169Z,27.03
2022-08-26T00:25:24.573Z,26.89
2022-08-26T00:27:53.781Z,26.87
2022-08-26T00:30:28.203Z,26.89
2022-08-26T00:32:58.033Z,26.80
2022-08-26T00:35:27.883Z,26.86
2022-08-26T00:37:57.535Z,26.87
2022-08-26T00:40:34.988Z,26.87
2022-08-26T00:43:07.123Z,26.89
2022-08-26T00:45:46.045Z,26.86
2022-08-26T00:48:18.810Z,26.86
2022-08-26T00:51:12.404Z,26.84
2022-08-26T00:53:50.969Z,26.82
2022-08-26T00:56:32.596Z,26.84
2022-08-26T00:59:05.371Z,26.82
2022-08-26T01:01:34.345Z,26.79
2022-08-26T01:04:03.362Z,26.81
2022-08-26T01:06:34.283Z,26.77
2022-08-26T01:09:05.165Z,26.72
2022-08-26T01:11:36.803Z,26.82
2022-08-26T01:14:07.040Z,26.70
2022-08-26T01:16:37.382Z,26.71
2022-08-26T01:19:38.931Z,26.58
2022-08-26T01:25:05.376Z,26.57
2022-08-26T01:27:36.340Z,26.65
2022-08-26T01:30:06.454Z,26.50
2022-08-26T01:32:36.511Z,26.60
2022-08-26T01:35:08.452Z,26.56
2022-08-26T01:37:40.454Z,26.55
2022-08-26T01:40:15.215Z,26.55
2022-08-26T01:42:47.535Z,26.53
2022-08-26T01:45:25.552Z,26.44
2022-08-26T01:47:58.520Z,26.42
2022-08-26T01:50:33.589Z,26.40
2022-08-26T01:53:07.935Z,26.36
2022-08-26T01:55:41.907Z,26.24
2022-08-26T01:58:18.871Z,26.23
2022-08-26T02:00:48.646Z,26.29
2022-08-26T02:03:22.450Z,26.24
2022-08-26T02:05:56.262Z,26.26
2022-08-26T02:08:49.712Z,26.19
2022-08-26T02:11:19.601Z,26.17
2022-08-26T02:14:16.456Z,26.10
2022-08-26T02:16:49.209Z,26.14
2022-08-26T02:19:22.493Z,26.11
2022-08-26T02:21:53.866Z,26.15
2022-08-26T02:24:29.020Z,26.06
2022-08-26T02:26:58.629Z,26.12
2022-08-26T02:29:35.403Z,26.00
2022-08-26T02:32:08.469Z,26.18
2022-08-26T02:34:39.048Z,26.04
2022-08-26T02:37:10.811Z,26.04
2022-08-26T02:39:43.032Z,26.01
2022-08-26T02:42:12.429Z,25.91
2022-08-26T02:44:40.989Z,26.00
2022-08-26T02:47:10.261Z,25.97
2022-08-26T02:49:40.487Z,25.95
2022-08-26T02:52:15.703Z,26.02
2022-08-26T02:54:44.254Z,25.99
2022-08-26T02:57:15.526Z,25.98
2022-08-26T02:59:45.067Z,25.98
2022-08-26T03:02:14.354Z,26.02
2022-08-26T03:04:57.707Z,25.95
2022-08-26T03:07:30.852Z,25.88
2022-08-26T03:09:59.602Z,25.80
2022-08-26T03:12:29.305Z,25.72
2022-08-26T03:15:00.996Z,25.81
2022-08-26T03:17:30.249Z,25.69
2022-08-26T03:19:59.092Z,25.76
2022-08-26T03:22:28.255Z,25.66
2022-08-26T03:24:56.963Z,25.55
2022-08-26T03:27:26.248Z,25.63
2022-08-26T03:30:16.617Z,25.67
2022-08-26T03:32:44.918Z,25.53
2022-08-26T03:35:14.864Z,25.55
2022-08-26T03:37:43.808Z,25.51
2022-08-26T03:40:13.318Z,25.51
2022-08-26T03:42:45.339Z,25.46
2022-08-26T03:45:15.995Z,25.48
2022-08-26T03:47:44.902Z,25.48
2022-08-26T03:50:17.995Z,25.50
2022-08-26T03:52:53.145Z,25.53
2022-08-26T03:55:27.320Z,25.47
2022-08-26T03:57:56.060Z,25.36
2022-08-26T04:00:25.151Z,25.45
2022-08-26T04:02:56.439Z,25.51
2022-08-26T04:05:25.633Z,25.64
2022-08-26T04:07:56.113Z,25.43
2022-08-26T04:10:28.939Z,25.41
2022-08-26T04:12:59.295Z,25.50
2022-08-26T04:15:28.728Z,25.45
2022-08-26T04:17:57.318Z,25.40
2022-08-26T04:20:29.202Z,25.51
2022-08-26T04:22:57.918Z,25.28
2022-08-26T04:25:26.025Z,25.37
2022-08-26T04:27:55.178Z,25.42
2022-08-26T04:30:24.344Z,25.41
2022-08-26T04:32:53.927Z,25.40
2022-08-26T04:35:26.012Z,25.38
2022-08-26T04:37:55.593Z,25.34
2022-08-26T04:40:24.643Z,25.46
2022-08-26T04:42:55.214Z,25.48
2022-08-26T04:45:24.827Z,25.52
2022-08-26T04:47:56.539Z,25.40
2022-08-26T04:50:26.558Z,25.37
2022-08-26T04:52:55.836Z,25.47
2022-08-26T04:55:39.679Z,25.53
2022-08-26T04:58:15.660Z,25.50
2022-08-26T05:00:46.143Z,25.52
2022-08-26T05:03:17.125Z,25.56
2022-08-26T05:05:47.808Z,25.58
2022-08-26T05:08:19.099Z,25.68
2022-08-26T05:10:56.553Z,25.61
2022-08-26T05:13:27.651Z,25.58
2022-08-26T05:16:04.508Z,25.58
2022-08-26T05:18:35.785Z,25.43
2022-08-26T05:21:05.847Z,25.48
2022-08-26T05:30:24.736Z,25.50
2022-08-26T05:32:55.363Z,25.43
2022-08-26T05:35:24.107Z,25.28
2022-08-26T05:37:56.731Z,25.39
2022-08-26T05:40:26.307Z,25.39
2022-08-26T05:42:57.006Z,25.42
2022-08-26T05:45:27.778Z,25.30
2022-08-26T05:47:58.274Z,25.42
2022-08-26T05:50:27.086Z,25.49
2022-08-26T05:52:55.510Z,25.62
2022-08-26T05:55:24.685Z,25.58
2022-08-26T05:57:53.964Z,25.78
2022-08-26T06:00:25.012Z,25.81
2022-08-26T06:02:53.238Z,25.72
2022-08-26T06:05:23.862Z,25.67
2022-08-26T06:08:12.471Z,25.78
2022-08-26T06:10:53.533Z,25.90
2022-08-26T06:13:27.047Z,25.85
2022-08-26T06:15:59.523Z,25.78
2022-08-26T06:18:33.395Z,25.84
2022-08-26T06:21:24.155Z,25.73
2022-08-26T06:24:15.620Z,25.74
2022-08-26T06:26:56.953Z,25.97
2022-08-26T06:29:26.648Z,26.01
2022-08-26T06:31:56.948Z,26.01
2022-08-26T06:34:30.537Z,25.97
2022-08-26T06:37:06.681Z,25.98
2022-08-26T06:39:41.045Z,26.28
2022-08-26T06:42:10.809Z,26.29
2022-08-26T06:44:44.677Z,26.34
2022-08-26T06:47:15.622Z,26.32
2022-08-26T06:50:01.222Z,26.34
2022-08-26T06:52:30.014Z,26.38
2022-08-26T06:55:00.129Z,26.50
2022-08-26T06:57:28.867Z,26.50
2022-08-26T07:00:02.380Z,26.60
2022-08-26T07:02:31.207Z,26.61
2022-08-26T07:05:00.128Z,26.87
2022-08-26T07:07:29.684Z,26.96
2022-08-26T07:09:58.271Z,27.09
2022-08-26T07:12:27.741Z,27.15
2022-08-26T07:14:56.286Z,27.24
2022-08-26T07:17:26.313Z,27.25
2022-08-26T07:19:56.186Z,27.24
2022-08-26T07:22:25.099Z,27.31
2022-08-26T07:24:52.964Z,27.56
2022-08-26T07:27:21.969Z,27.67
2022-08-26T07:29:50.122Z,27.70
2022-08-26T07:32:20.898Z,27.69
2022-08-26T07:34:51.850Z,27.82
2022-08-26T07:37:20.683Z,27.86
2022-08-26T07:39:49.312Z,27.84
2022-08-26T07:42:20.705Z,27.81
2022-08-26T07:44:49.347Z,27.88
2022-08-26T07:47:24.589Z,27.89
2022-08-26T07:49:57.807Z,27.90
2022-08-26T07:52:30.738Z,27.92
2022-08-26T07:55:02.069Z,27.85
2022-08-26T07:57:32.268Z,27.81
2022-08-26T08:00:00.572Z,27.85
2022-08-26T08:02:30.375Z,27.93
2022-08-26T08:05:00.434Z,27.86
2022-08-26T08:07:44.940Z,27.98
2022-08-26T08:10:19.299Z,27.92
2022-08-26T08:12:50.294Z,28.00
2022-08-26T08:15:24.408Z,27.90
2022-08-26T08:17:58.862Z,27.92
2022-08-26T08:20:30.474Z,27.91
2022-08-26T08:22:59.569Z,27.85
2022-08-26T08:25:29.856Z,27.73
2022-08-26T08:27:57.812Z,27.77
2022-08-26T08:30:28.244Z,27.61
2022-08-26T08:32:57.473Z,27.57
2022-08-26T08:35:30.164Z,27.35
2022-08-26T08:38:04.166Z,27.51
2022-08-26T08:40:33.286Z,27.57
2022-08-26T08:43:13.749Z,27.54
2022-08-26T08:45:58.535Z,27.35
2022-08-26T08:48:37.225Z,27.40
2022-08-26T08:51:26.665Z,27.48
2022-08-26T08:53:56.485Z,27.46
2022-08-26T08:56:49.895Z,27.52
2022-08-26T08:59:25.204Z,27.63
2022-08-26T09:02:27.532Z,27.78
2022-08-26T09:05:15.036Z,27.80
2022-08-26T09:08:06.598Z,27.88
2022-08-26T09:10:47.209Z,27.90
2022-08-26T09:13:25.130Z,27.80
2022-08-26T09:16:11.043Z,27.99
2022-08-26T09:19:18.960Z,28.05
2022-08-26T09:21:56.846Z,28.04
2022-08-26T09:24:28.491Z,28.10
2022-08-26T09:27:01.456Z,28.13
2022-08-26T09:29:41.332Z,28.00
2022-08-26T09:32:27.299Z,27.95
2022-08-26T09:35:13.520Z,27.84
2022-08-26T09:40:29.475Z,27.71
2022-08-26T09:43:21.985Z,27.75
2022-08-26T09:45:59.431Z,27.65
2022-08-26T09:48:36.239Z,27.59
2022-08-26T09:51:27.735Z,27.58
2022-08-26T09:53:58.622Z,27.61
2022-08-26T09:56:36.405Z,27.54
2022-08-26T09:59:11.133Z,27.60
2022-08-26T10:01:45.028Z,27.59
2022-08-26T10:04:27.145Z,27.56
2022-08-26T10:07:07.713Z,27.60
2022-08-26T10:09:42.164Z,27.56
2022-08-26T10:12:19.372Z,27.56
2022-08-26T10:15:10.165Z,27.54
2022-08-26T10:17:40.054Z,27.48
2022-08-26T10:20:23.581Z,27.57
2022-08-26T10:23:14.081Z,27.64
2022-08-26T10:26:13.296Z,27.68
2022-08-26T10:29:01.612Z,27.79
2022-08-26T10:31:40.612Z,27.86
2022-08-26T10:34:12.349Z,27.90
2022-08-26T10:37:16.448Z,27.97
2022-08-26T10:40:13.240Z,28.01
2022-08-26T10:43:12.808Z,28.11
2022-08-26T10:45:56.732Z,28.18
2022-08-26T10:49:13.637Z,28.29
2022-08-26T10:52:04.384Z,28.27
2022-08-26T10:54:53.599Z,28.28
2022-08-26T10:57:59.209Z,28.31
2022-08-26T11:01:01.751Z,28.37
2022-08-26T11:04:02.418Z,28.39
2022-08-26T11:06:31.835Z,28.42
2022-08-26T11:09:05.222Z,28.43
2022-08-26T11:11:42.453Z,28.45
2022-08-26T11:14:28.740Z,28.52
2022-08-26T11:17:01.549Z,28.53
2022-08-26T11:20:01.468Z,28.61
2022-08-26T11:22:47.353Z,28.69
2022-08-26T11:25:19.558Z,28.72
2022-08-26T11:27:56.079Z,28.85
2022-08-26T11:30:39.119Z,28.95
2022-08-26T11:33:09.306Z,28.98
2022-08-26T11:35:43.668Z,29.07
2022-08-26T11:38:20.547Z,29.17
2022-08-26T11:41:11.891Z,29.28
2022-08-26T11:43:41.699Z,29.32
2022-08-26T11:46:13.069Z,29.28
2022-08-26T11:48:44.903Z,29.37
2022-08-26T11:51:16.409Z,29.42
2022-08-26T11:53:47.201Z,29.56
2022-08-26T11:56:33.918Z,29.73
2022-08-26T11:59:10.052Z,29.88
2022-08-26T12:01:46.145Z,30.05
2022-08-26T12:04:30.081Z,30.06
2022-08-26T12:07:02.268Z,30.30
2022-08-26T12:09:35.193Z,30.29
2022-08-26T12:12:43.715Z,30.35
2022-08-26T12:15:23.099Z,30.28
2022-08-26T12:17:54.637Z,30.34
2022-08-26T12:20:54.232Z,30.61
2022-08-26T12:23:39.290Z,30.62
2022-08-26T12:26:16.206Z,30.63
2022-08-26T12:28:48.594Z,30.70
2022-08-26T12:31:43.242Z,30.71
2022-08-26T12:34:18.615Z,30.63
2022-08-26T12:39:39.767Z,30.46
2022-08-26T12:42:42.567Z,30.37
2022-08-26T12:45:11.696Z,30.43
2022-08-26T12:47:44.119Z,30.36
2022-08-26T12:50:23.653Z,30.34
2022-08-26T12:53:03.989Z,30.38
2022-08-26T12:55:40.326Z,30.37
2022-08-26T12:58:31.911Z,30.40
2022-08-26T13:01:09.295Z,30.36
2022-08-26T13:03:45.706Z,30.49
2022-08-26T13:06:30.212Z,31.11
2022-08-26T13:09:12.907Z,31.95
2022-08-26T13:11:45.198Z,32.33
2022-08-26T13:14:21.113Z,32.13
2022-08-26T13:16:53.829Z,31.82
2022-08-26T13:19:25.870Z,31.61
2022-08-26T13:21:58.034Z,31.38
2022-08-26T13:24:34.478Z,31.13
2022-08-26T13:27:05.010Z,30.92
2022-08-26T13:29:34.603Z,30.53
2022-08-26T13:32:06.137Z,30.47
2022-08-26T13:34:39.493Z,30.29
2022-08-26T13:37:08.970Z,30.35
2022-08-26T13:39:38.404Z,30.17
2022-08-26T13:42:07.329Z,30.16
2022-08-26T13:44:39.166Z,30.06
2022-08-26T13:47:08.771Z,29.97
2022-08-26T13:49:37.199Z,29.87
2022-08-26T13:52:05.362Z,29.94
2022-08-26T13:54:33.628Z,29.86
2022-08-26T13:57:02.523Z,29.91
2022-08-26T13:59:31.141Z,29.86
2022-08-26T14:02:03.026Z,29.89
2022-08-26T14:04:31.246Z,29.83
2022-08-26T14:07:00.612Z,29.87
2022-08-26T14:09:29.128Z,29.83
2022-08-26T14:12:00.965Z,29.89
2022-08-26T14:14:30.403Z,29.76
2022-08-26T14:17:00.531Z,29.71
2022-08-26T14:19:33.340Z,29.66
2022-08-26T14:22:04.162Z,29.57
2022-08-26T14:24:34.198Z,29.63
2022-08-26T14:27:04.644Z,29.54
2022-08-26T14:29:33.280Z,29.50
2022-08-26T14:32:07.115Z,29.39
2022-08-26T14:34:36.826Z,29.31
2022-08-26T14:37:09.894Z,29.14
2022-08-26T14:39:41.716Z,29.15
2022-08-26T14:42:10.986Z,29.09
2022-08-26T14:44:44.947Z,29.02
2022-08-26T14:47:13.438Z,28.95
2022-08-26T14:49:42.102Z,28.92
2022-08-26T14:52:10.172Z,28.83
2022-08-26T14:54:38.102Z,28.84
2022-08-26T14:57:12.229Z,28.73
2022-08-26T14:59:49.606Z,28.70
2022-08-26T15:02:32.812Z,28.68
2022-08-26T15:05:08.803Z,28.59
2022-08-26T15:07:41.024Z,28.57
2022-08-26T15:10:13.947Z,28.62
2022-08-26T15:12:43.330Z,28.61
2022-08-26T15:15:15.503Z,28.61
2022-08-26T15:17:44.890Z,28.59
2022-08-26T15:20:16.546Z,28.55
2022-08-26T15:22:45.273Z,28.61
2022-08-26T15:25:15.583Z,28.55
2022-08-26T15:27:44.572Z,28.64
2022-08-26T15:30:13.982Z,28.64
2022-08-26T15:32:50.343Z,28.60
2022-08-26T15:35:19.986Z,28.49
2022-08-26T15:40:22.305Z,28.48
2022-08-26T15:43:01.122Z,28.42
2022-08-26T15:45:35.921Z,28.34
2022-08-26T15:48:04.958Z,28.30
2022-08-26T15:50:36.248Z,28.27
2022-08-26T15:53:05.518Z,28.29
2022-08-26T15:55:34.953Z,28.30
2022-08-26T15:58:03.216Z,28.30
2022-08-26T16:00:32.553Z,28.28
2022-08-26T16:03:01.132Z,28.27
2022-08-26T16:05:30.950Z,28.26
2022-08-26T16:07:59.319Z,28.23
2022-08-26T16:10:31.406Z,28.24
2022-08-26T16:13:00.759Z,28.23
2022-08-26T16:15:30.376Z,28.12
2022-08-26T16:18:03.434Z,28.07
2022-08-26T16:20:35.546Z,28.08
2022-08-26T16:23:06.392Z,27.95
2022-08-26T16:25:39.003Z,27.59
2022-08-26T16:28:11.644Z,27.25
2022-08-26T16:30:42.779Z,26.92
2022-08-26T16:33:15.196Z,26.38
2022-08-26T16:35:59.993Z,26.13
2022-08-26T16:38:28.387Z,25.87
2022-08-26T16:43:58.696Z,25.74
2022-08-26T16:49:13.211Z,25.77
2022-08-26T16:51:42.738Z,25.66
2022-08-26T16:54:10.574Z,25.50
2022-08-26T16:56:40.665Z,25.50
2022-08-26T16:59:12.275Z,25.52
2022-08-26T17:01:42.115Z,25.50
2022-08-26T17:04:15.442Z,25.55
2022-08-26T17:06:47.139Z,25.62
2022-08-26T17:09:15.974Z,25.72
2022-08-26T17:11:46.410Z,25.81
2022-08-26T17:14:14.391Z,25.89
2022-08-26T17:16:43.696Z,25.92
2022-08-26T17:19:12.633Z,26.01
2022-08-26T17:21:41.854Z,26.09
2022-08-26T17:24:13.463Z,26.15
2022-08-26T17:26:48.312Z,26.25
2022-08-26T17:29:19.179Z,26.28
2022-08-26T17:31:48.212Z,26.39
2022-08-26T17:34:19.373Z,26.43
2022-08-26T17:36:47.351Z,26.47
2022-08-26T17:39:17.123Z,26.51
2022-08-26T17:41:49.342Z,26.56
2022-08-26T17:44:19.239Z,26.62
2022-08-26T17:46:49.649Z,26.67
2022-08-26T17:49:18.451Z,26.71
2022-08-26T17:51:49.266Z,26.67
2022-08-26T17:54:20.042Z,26.77
2022-08-26T17:56:50.000Z,26.79
2022-08-26T17:59:22.509Z,26.85
2022-08-26T18:01:55.167Z,26.85
2022-08-26T18:04:24.169Z,26.88
2022-08-26T18:06:53.088Z,26.88
2022-08-26T18:09:26.621Z,26.93
2022-08-26T18:11:56.447Z,26.97
2022-08-26T18:14:25.970Z,26.97
2022-08-26T18:16:56.084Z,26.99
2022-08-26T18:19:24.287Z,27.00
2022-08-26T18:21:55.340Z,26.98
2022-08-26T18:24:23.285Z,27.02
2022-08-26T18:26:52.067Z,27.00
2022-08-26T18:29:20.751Z,27.03
2022-08-26T18:31:50.321Z,27.01
2022-08-26T18:34:20.056Z,27.04
2022-08-26T18:36:49.672Z,27.02
2022-08-26T18:39:23.457Z,27.07
2022-08-26T18:41:55.514Z,27.07
2022-08-26T18:44:25.340Z,27.09
2022-08-26T18:46:54.211Z,27.12
2022-08-26T18:49:24.381Z,27.11
2022-08-26T18:51:53.883Z,27.07
2022-08-26T18:54:23.250Z,27.10
2022-08-26T18:56:53.245Z,27.11
2022-08-26T18:59:30.512Z,27.07
2022-08-26T19:02:00.356Z,27.09
2022-08-26T19:04:29.719Z,27.08
2022-08-26T19:06:58.161Z,27.06
2022-08-26T19:09:33.048Z,27.06
2022-08-26T19:12:03.596Z,27.02
2022-08-26T19:14:32.936Z,26.98
2022-08-26T19:17:02.754Z,27.00
2022-08-26T19:19:33.956Z,26.96
2022-08-26T19:22:03.349Z,26.95
2022-08-26T19:24:32.627Z,26.90
2022-08-26T19:27:02.632Z,26.94
2022-08-26T19:29:36.032Z,26.89
2022-08-26T19:32:04.884Z,26.90
2022-08-26T19:34:34.656Z,26.95
2022-08-26T19:37:03.140Z,26.87
2022-08-26T19:39:32.470Z,26.87
2022-08-26T19:42:00.808Z,26.82
2022-08-26T19:44:48.634Z,26.80
2022-08-26T19:47:17.141Z,26.78
2022-08-26T19:49:45.870Z,26.75
2022-08-26T19:52:14.108Z,26.71
2022-08-26T19:54:44.686Z,26.68
2022-08-26T19:57:13.038Z,26.68
2022-08-26T19:59:42.511Z,26.70
2022-08-26T20:02:12.184Z,26.70
2022-08-26T20:04:41.827Z,26.67
2022-08-26T20:07:12.921Z,26.69
2022-08-26T20:09:45.540Z,26.67
2022-08-26T20:12:15.567Z,26.67
2022-08-26T20:14:45.185Z,26.66
2022-08-26T20:17:13.248Z,26.72
2022-08-26T20:20:01.780Z,26.68
2022-08-26T20:22:31.536Z,26.69
2022-08-26T20:25:00.966Z,26.69
2022-08-26T20:27:38.126Z,26.71
2022-08-26T20:30:09.308Z,26.77
2022-08-26T20:32:38.852Z,26.77
2022-08-26T20:35:10.858Z,26.77
2022-08-26T20:37:41.876Z,26.77
2022-08-26T20:40:13.440Z,26.74
2022-08-26T20:42:42.791Z,26.77
2022-08-26T20:45:11.763Z,26.73
2022-08-26T20:47:43.110Z,26.73
2022-08-26T20:50:11.342Z,26.74
2022-08-26T20:52:43.200Z,26.75
2022-08-26T20:55:12.386Z,26.73
2022-08-26T20:57:43.623Z,26.76
2022-08-26T21:00:16.104Z,26.79
2022-08-26T21:02:46.561Z,26.74
2022-08-26T21:05:15.624Z,26.82
2022-08-26T21:07:44.218Z,26.82
2022-08-26T21:10:15.218Z,26.74
2022-08-26T21:12:45.677Z,26.74
2022-08-26T21:15:14.793Z,26.77
2022-08-26T21:17:44.923Z,26.65
2022-08-26T21:20:13.332Z,26.68
2022-08-26T21:22:44.028Z,26.66
2022-08-26T21:25:15.051Z,26.60
2022-08-26T21:27:43.645Z,26.65
2022-08-26T21:30:15.586Z,26.72
2022-08-26T21:32:44.254Z,26.67
2022-08-26T21:35:13.339Z,26.71
2022-08-26T21:37:41.558Z,26.60
2022-08-26T21:40:11.176Z,26.52
2022-08-26T21:42:40.083Z,26.56
2022-08-26T21:45:08.508Z,26.57
2022-08-26T21:47:37.685Z,26.50
2022-08-26T21:50:07.187Z,26.54
2022-08-26T21:52:39.276Z,26.51
2022-08-26T21:55:08.934Z,26.53
2022-08-26T21:57:38.229Z,26.48
2022-08-26T22:00:10.393Z,26.45
2022-08-26T22:02:38.197Z,26.53
2022-08-26T22:05:06.384Z,26.43
2022-08-26T22:07:36.097Z,26.36
2022-08-26T22:10:04.883Z,26.42
2022-08-26T22:12:36.392Z,26.47
2022-08-26T22:15:06.694Z,26.37
2022-08-26T22:17:35.493Z,26.36
2022-08-26T22:20:07.510Z,26.29
2022-08-26T22:22:46.297Z,26.23
2022-08-26T22:25:14.291Z,26.19
2022-08-26T22:27:43.492Z,26.24
2022-08-26T22:30:13.123Z,26.22
2022-08-26T22:32:41.271Z,26.22
2022-08-26T22:35:29.113Z,26.23
2022-08-26T22:37:59.831Z,26.17
2022-08-26T22:40:29.110Z,26.09
2022-08-26T22:42:58.079Z,26.09
2022-08-26T22:45:31.681Z,26.16
2022-08-26T22:48:05.231Z,26.06
2022-08-26T22:50:34.999Z,26.12
2022-08-26T22:53:03.293Z,26.01
2022-08-26T22:55:32.091Z,25.98
2022-08-26T22:58:05.212Z,26.05
2022-08-26T23:00:34.579Z,26.01
2022-08-26T23:03:04.680Z,26.03
2022-08-26T23:05:33.268Z,25.92
2022-08-26T23:08:03.283Z,25.90
2022-08-26T23:10:32.862Z,25.87
2022-08-26T23:13:08.363Z,25.92
2022-08-26T23:15:39.823Z,25.79
2022-08-26T23:18:10.620Z,25.83
2022-08-26T23:20:39.854Z,25.79
2022-08-26T23:23:08.879Z,25.88
2022-08-26T23:25:37.205Z,25.79
2022-08-26T23:28:05.987Z,25.83
2022-08-26T23:30:35.271Z,25.85
2022-08-26T23:33:05.848Z,25.75
2022-08-26T23:35:34.215Z,25.73
2022-08-26T23:38:04.576Z,25.71
2022-08-26T23:40:35.368Z,25.68
2022-08-26T23:43:07.788Z,25.46
2022-08-26T23:45:36.433Z,25.52
2022-08-26T23:48:06.302Z,25.59
2022-08-26T23:50:57.325Z,25.66
2022-08-26T23:53:25.293Z,25.61
2022-08-26T23:55:54.509Z,25.57
2022-08-26T23:58:23.237Z,25.51
